Time;durP1;ratioP1;P1;durP2;ratioP2;P2;SDS_P1;SDS_P2;PMS_P1;PMS_P2;Temp;Humidity;BMP_temperature;BMP_pressure;BME280_temperature;BME280_humidity;BME280_pressure;Samples;Min_cycle;Max_cycle;Signal;HPM_P1;HPM_P2
2022/05/15 00:00:37;;;;;;;6.32;4.15;;;13.40;99.90;;;;;;5073252;28;20031;-52
2022/05/15 00:00:38;;;;;;;7.97;4.50;;;13.40;99.90;;;;;;5074315;28;20033;-52
2022/05/15 00:03:10;;;;;;;;;;;13.40;99.90;;;;;;5074699;28;20020;-55
2022/05/15 00:05:36;;;;;;;9.32;4.53;;;13.30;99.90;;;;;;5073758;28;20005;-49
2022/05/15 00:08:02;;;;;;;7.95;4.75;;;13.30;99.90;;;;;;5073646;28;20059;-50
2022/05/15 00:10:28;;;;;;;7.72;4.70;;;13.30;99.90;;;;;;5072746;28;20095;-54
2022/05/15 00:12:53;;;;;;;6.28;4.93;;;13.30;99.90;;;;;;5073071;28;20127;-51
2022/05/15 00:15:19;;;;;;;9.75;4.97;;;13.20;99.90;;;;;;5074513;28;20035;-52
2022/05/15 00:17:45;;;;;;;12.32;5.00;;;13.20;99.90;;;;;;5074222;28;20082;-55
2022/05/15 00:20:10;;;;;;;9.55;4.80;;;13.20;99.90;;;;;;5073849;28;20060;-52
2022/05/15 00:22:36;;;;;;;9.27;5.53;;;13.10;99.90;;;;;;5074190;28;20454;-51
2022/05/15 00:25:05;;;;;;;10.07;5.50;;;13.10;99.90;;;;;;5072575;28;20021;-51
2022/05/15 00:27:31;;;;;;;9.55;5.28;;;13.00;99.90;;;;;;5073734;28;20125;-52
2022/05/15 00:29:56;;;;;;;8.20;5.07;;;12.90;99.90;;;;;;5073937;28;20028;-51
2022/05/15 00:32:22;;;;;;;9.32;5.43;;;12.90;99.90;;;;;;5072396;28;20031;-51
2022/05/15 00:34:47;;;;;;;11.07;5.07;;;13.00;99.90;;;;;;5072340;28;20025;-55
2022/05/15 00:37:13;;;;;;;8.23;5.10;;;13.00;99.90;;;;;;5072731;28;20032;-54
2022/05/15 00:39:39;;;;;;;9.07;6.22;;;12.90;99.90;;;;;;5072193;28;20024;-54
2022/05/15 00:42:09;;;;;;;9.65;5.28;;;13.00;99.90;;;;;;5073614;28;20024;-54
2022/05/15 00:44:35;;;;;;;8.93;5.57;;;13.00;99.90;;;;;;5072527;28;20051;-50
2022/05/15 00:47:01;;;;;;;8.95;5.45;;;13.00;99.90;;;;;;5072231;28;20052;-56
2022/05/15 00:49:27;;;;;;;10.82;5.80;;;12.80;99.90;;;;;;5072136;28;20021;-50
2022/05/15 00:51:58;;;;;;;10.52;5.53;;;12.80;99.90;;;;;;5073398;28;20016;-49
2022/05/15 00:54:25;;;;;;;8.13;5.70;;;12.70;99.90;;;;;;5073756;28;20017;-50
2022/05/15 00:56:57;;;;;;;8.98;5.68;;;12.70;99.90;;;;;;5073894;28;20027;-51
2022/05/15 00:59:27;;;;;;;8.88;6.22;;;12.70;99.90;;;;;;5072299;28;20020;-52
2022/05/15 01:01:52;;;;;;;14.68;5.72;;;12.60;99.90;;;;;;5072172;28;20029;-52
2022/05/15 01:04:18;;;;;;;8.55;5.38;;;12.60;99.90;;;;;;5072019;28;20025;-53
2022/05/15 01:06:44;;;;;;;12.02;5.57;;;12.50;99.90;;;;;;5071948;28;20027;-53
2022/05/15 01:09:12;;;;;;;9.98;5.20;;;12.50;99.90;;;;;;5073300;28;20387;-51
2022/05/15 01:11:39;;;;;;;8.20;5.75;;;12.50;99.90;;;;;;5073425;28;20031;-53
2022/05/15 01:14:09;;;;;;;10.43;5.43;;;12.40;99.90;;;;;;5073129;28;20050;-50
2022/05/15 01:16:36;;;;;;;7.68;5.22;;;12.30;99.90;;;;;;5073482;28;20036;-50
2022/05/15 01:19:03;;;;;;;7.15;5.45;;;12.30;99.90;;;;;;5072590;28;20101;-55
2022/05/15 01:21:33;;;;;;;6.20;5.22;;;12.30;99.90;;;;;;5073289;28;20459;-52
2022/05/15 01:24:00;;;;;;;8.73;5.75;;;12.20;99.90;;;;;;5071926;28;20024;-50
2022/05/15 01:26:27;;;;;;;6.30;5.30;;;12.20;99.90;;;;;;5072097;28;20017;-53
2022/05/15 01:28:53;;;;;;;11.57;5.82;;;12.20;99.90;;;;;;5073229;28;20021;-53
2022/05/15 01:31:20;;;;;;;10.60;5.75;;;12.10;99.90;;;;;;5073479;28;20024;-52
2022/05/15 01:33:48;;;;;;;9.65;5.72;;;12.10;99.90;;;;;;5071924;28;20020;-52
2022/05/15 01:36:15;;;;;;;7.05;6.00;;;12.10;99.90;;;;;;5073019;28;20029;-52
2022/05/15 01:38:41;;;;;;;6.78;5.13;;;12.10;99.90;;;;;;5073097;28;20050;-55
2022/05/15 01:41:07;;;;;;;8.85;6.00;;;12.10;99.90;;;;;;5071843;28;20453;-51
2022/05/15 01:43:34;;;;;;;7.03;5.68;;;12.00;99.90;;;;;;5071698;28;20024;-53
2022/05/15 01:45:59;;;;;;;9.15;7.18;;;12.00;99.90;;;;;;5072345;28;20045;-53
2022/05/15 01:48:26;;;;;;;9.77;5.97;;;12.00;99.90;;;;;;5072137;28;20059;-52
2022/05/15 01:50:52;;;;;;;11.13;6.13;;;12.00;99.90;;;;;;5072699;28;20063;-56
2022/05/15 01:53:18;;;;;;;11.02;6.40;;;12.00;99.90;;;;;;5072726;28;20028;-51
2022/05/15 01:55:44;;;;;;;10.27;5.63;;;11.90;99.90;;;;;;5072344;28;20024;-53
2022/05/15 01:58:10;;;;;;;8.93;5.97;;;12.00;99.90;;;;;;5071771;28;20032;-54
2022/05/15 02:00:37;;;;;;;6.03;5.45;;;11.90;99.90;;;;;;5071589;28;20031;-52
2022/05/15 02:03:03;;;;;;;7.68;6.57;;;11.80;99.90;;;;;;5072646;28;20023;-53
2022/05/15 02:05:28;;;;;;;10.23;5.95;;;11.80;99.90;;;;;;5072916;28;20020;-53
2022/05/15 02:07:54;;;;;;;9.30;5.68;;;11.80;99.90;;;;;;5072683;28;20025;-52
2022/05/15 02:10:20;;;;;;;7.40;5.63;;;11.70;99.90;;;;;;5071310;28;20028;-53
2022/05/15 02:12:45;;;;;;;10.05;5.97;;;11.70;99.90;;;;;;5073149;28;20032;-56
2022/05/15 02:15:12;;;;;;;8.85;6.55;;;11.70;99.90;;;;;;5071152;28;20039;-53
2022/05/15 02:17:38;;;;;;;9.23;5.75;;;11.70;99.90;;;;;;5071330;28;20479;-55
2022/05/15 02:20:05;;;;;;;7.53;5.88;;;11.70;99.90;;;;;;5072403;28;20036;-56
2022/05/15 02:22:31;;;;;;;8.23;5.88;;;11.60;99.90;;;;;;5071111;28;20482;-54
2022/05/15 02:24:57;;;;;;;9.93;5.88;;;11.50;99.90;;;;;;5071480;28;20042;-51
2022/05/15 02:27:22;;;;;;;7.13;5.47;;;11.40;99.90;;;;;;5071184;28;20067;-52
2022/05/15 02:29:48;;;;;;;10.82;5.85;;;11.50;99.90;;;;;;5072504;28;20029;-52
2022/05/15 02:32:13;;;;;;;11.20;6.35;;;11.50;99.90;;;;;;5076025;28;20029;-50
2022/05/15 02:34:39;;;;;;;10.07;5.95;;;11.50;99.90;;;;;;5074829;28;20094;-52
2022/05/15 02:37:05;;;;;;;8.05;5.80;;;11.50;99.90;;;;;;5074719;28;20028;-52
2022/05/15 02:39:31;;;;;;;9.45;5.90;;;11.60;99.90;;;;;;5075644;28;20421;-51
2022/05/15 02:41:56;;;;;;;10.40;5.20;;;11.60;99.90;;;;;;5074605;28;20478;-53
2022/05/15 02:44:22;;;;;;;7.90;6.25;;;11.60;99.90;;;;;;5074497;28;20025;-54
2022/05/15 02:46:48;;;;;;;8.77;5.72;;;11.60;99.90;;;;;;5075815;28;20028;-52
2022/05/15 02:51:57;;;;;;;9.80;6.03;;;11.50;99.90;;;;;;5075709;28;20081;-53
2022/05/15 02:54:23;;;;;;;9.20;6.30;;;11.50;99.90;;;;;;5075712;28;20028;-49
2022/05/15 02:56:49;;;;;;;8.38;6.03;;;11.40;99.90;;;;;;5075566;28;20021;-52
2022/05/15 02:59:15;;;;;;;12.07;6.40;;;11.40;99.90;;;;;;5074166;28;20123;-54
2022/05/15 03:01:41;;;;;;;9.75;6.20;;;11.30;99.90;;;;;;5075993;28;20028;-53
2022/05/15 03:04:06;;;;;;;10.65;6.20;;;11.30;99.90;;;;;;5074154;28;20039;-49
2022/05/15 03:06:32;;;;;;;8.30;5.93;;;11.20;99.90;;;;;;5074145;28;20108;-55
2022/05/15 03:08:58;;;;;;;10.00;5.65;;;11.30;99.90;;;;;;5074455;28;20025;-50
2022/05/15 03:11:24;;;;;;;13.60;6.53;;;11.40;99.90;;;;;;5075552;28;20028;-49
2022/05/15 03:13:50;;;;;;;8.55;6.05;;;11.30;99.90;;;;;;5075345;28;20115;-56
2022/05/15 03:16:17;;;;;;;11.15;5.93;;;11.30;99.90;;;;;;5074797;28;20064;-54
2022/05/15 03:18:46;;;;;;;10.88;6.28;;;11.40;99.90;;;;;;5075397;28;20074;-51
2022/05/15 03:21:28;;;;;;;7.97;5.50;;;11.40;99.90;;;;;;5075154;28;20055;-50
2022/05/15 03:23:57;;;;;;;;;;;11.50;99.90;;;;;;5075110;28;20043;-51
2022/05/15 03:26:24;;;;;;;10.98;6.43;;;11.60;99.90;;;;;;5075079;28;19904;-53
2022/05/15 03:28:50;;;;;;;10.48;5.32;;;11.40;99.90;;;;;;5073967;28;20047;-54
2022/05/15 03:31:16;;;;;;;10.55;6.20;;;11.40;99.90;;;;;;5073673;28;20450;-55
2022/05/15 03:33:42;;;;;;;7.82;6.10;;;11.30;99.90;;;;;;5073951;28;20024;-57
2022/05/15 03:36:10;;;;;;;11.93;5.75;;;11.30;99.90;;;;;;5075040;28;20020;-51
2022/05/15 03:38:40;;;;;;;9.10;5.80;;;11.20;99.90;;;;;;5073512;28;20032;-56
2022/05/15 03:41:06;;;;;;;10.70;6.47;;;11.20;99.90;;;;;;5074296;28;20028;-52
2022/05/15 03:43:32;;;;;;;9.25;5.78;;;11.20;99.90;;;;;;5073707;28;20027;-50
2022/05/15 03:45:58;;;;;;;8.23;5.95;;;11.20;99.90;;;;;;5073361;28;20444;-49
2022/05/15 03:48:24;;;;;;;9.23;6.97;;;11.30;99.90;;;;;;5073538;28;20044;-50
2022/05/15 03:50:49;;;;;;;9.27;6.00;;;11.20;99.90;;;;;;5073155;28;20028;-53
2022/05/15 03:53:15;;;;;;;9.75;6.03;;;11.10;99.90;;;;;;5073264;28;20029;-51
2022/05/15 03:55:41;;;;;;;7.90;6.00;;;11.10;99.90;;;;;;5073707;28;20063;-50
2022/05/15 03:58:06;;;;;;;8.27;6.05;;;11.10;99.90;;;;;;5073156;28;20205;-50
2022/05/15 04:00:34;;;;;;;7.07;5.60;;;11.20;99.90;;;;;;5072999;28;20032;-52
2022/05/15 04:03:00;;;;;;;10.65;6.05;;;11.40;99.90;;;;;;5073103;28;20120;-53
2022/05/15 04:05:27;;;;;;;7.78;5.70;;;11.50;99.90;;;;;;5074501;28;20070;-52
2022/05/15 04:07:53;;;;;;;8.68;5.93;;;11.60;99.90;;;;;;5074526;28;20465;-53
2022/05/15 04:10:22;;;;;;;5.95;5.35;;;11.70;99.90;;;;;;5074075;28;20114;-52
2022/05/15 04:12:47;;;;;;;10.27;5.90;;;12.00;99.90;;;;;;5073755;28;20024;-51
2022/05/15 04:15:13;;;;;;;14.80;6.57;;;12.20;99.90;;;;;;5073973;28;20035;-53
2022/05/15 04:17:44;;;;;;;10.07;5.28;;;12.30;99.90;;;;;;5072762;28;20059;-53
2022/05/15 04:20:12;;;;;;;9.77;6.05;;;12.30;99.90;;;;;;5072900;28;20025;-54
2022/05/15 04:22:38;;;;;;;7.60;4.65;;;12.60;99.90;;;;;;5072688;28;20029;-54
2022/05/15 04:25:04;;;;;;;9.27;5.78;;;12.90;99.90;;;;;;5072695;28;20104;-54
2022/05/15 04:27:29;;;;;;;6.57;4.93;;;13.10;99.90;;;;;;5072590;28;20107;-56
2022/05/15 04:29:55;;;;;;;5.15;4.65;;;13.40;99.90;;;;;;5072451;28;20060;-50
2022/05/15 04:32:21;;;;;;;6.10;4.90;;;13.70;99.90;;;;;;5072568;28;20070;-53
2022/05/15 04:34:46;;;;;;;7.80;5.55;;;14.00;99.90;;;;;;5072655;28;20066;-50
2022/05/15 04:37:12;;;;;;;7.10;5.35;;;14.10;99.90;;;;;;5072632;28;20035;-54
2022/05/15 04:39:37;;;;;;;5.80;4.80;;;14.30;99.90;;;;;;5073272;28;20038;-51
2022/05/15 04:42:04;;;;;;;8.30;4.70;;;14.60;99.90;;;;;;5073786;28;20017;-53
2022/05/15 04:44:29;;;;;;;7.63;4.63;;;15.00;99.90;;;;;;5073702;28;20051;-51
2022/05/15 04:46:55;;;;;;;11.95;5.00;;;15.20;99.90;;;;;;5072292;28;20024;-52
2022/05/15 04:49:22;;;;;;;9.48;4.82;;;15.70;99.90;;;;;;5073131;28;20020;-51
2022/05/15 04:51:47;;;;;;;5.15;4.65;;;15.90;99.90;;;;;;5072155;28;20119;-52
2022/05/15 04:54:13;;;;;;;6.63;4.50;;;16.20;99.90;;;;;;5072362;28;20060;-51
2022/05/15 04:56:39;;;;;;;13.13;6.43;;;16.40;99.90;;;;;;5073592;28;20054;-54
2022/05/15 04:59:04;;;;;;;9.05;4.90;;;16.70;99.90;;;;;;5073455;28;20132;-52
2022/05/15 05:01:30;;;;;;;7.05;4.40;;;16.90;99.90;;;;;;5073666;28;20070;-52
2022/05/15 05:03:57;;;;;;;10.52;5.10;;;17.30;99.90;;;;;;5073489;28;20020;-54
2022/05/15 05:06:24;;;;;;;6.30;5.07;;;17.50;99.90;;;;;;5072177;28;20024;-54
2022/05/15 05:08:51;;;;;;;7.88;4.35;;;17.90;99.90;;;;;;5072090;28;20032;-50
2022/05/15 05:11:16;;;;;;;8.75;3.50;;;18.10;99.90;;;;;;5072109;28;20483;-53
2022/05/15 05:13:42;;;;;;;5.70;3.80;;;18.60;99.90;;;;;;5073611;28;20040;-51
2022/05/15 05:16:08;;;;;;;7.93;3.97;;;19.00;99.90;;;;;;5073257;28;20119;-54
2022/05/15 05:18:33;;;;;;;6.95;3.85;;;19.50;99.90;;;;;;5072119;28;20032;-53
2022/05/15 05:20:59;;;;;;;9.95;4.95;;;19.90;99.90;;;;;;5073188;28;20024;-50
2022/05/15 05:23:24;;;;;;;7.78;4.47;;;20.20;99.90;;;;;;5073321;28;20070;-50
2022/05/15 05:25:50;;;;;;;9.25;3.97;;;20.50;99.90;;;;;;5073275;28;20107;-53
2022/05/15 05:28:16;;;;;;;8.02;4.28;;;20.90;99.90;;;;;;5072037;28;20107;-55
2022/05/15 05:30:43;;;;;;;7.05;3.65;;;21.30;99.90;;;;;;5073131;28;20033;-53
2022/05/15 05:33:08;;;;;;;6.80;4.00;;;21.50;99.90;;;;;;5071935;28;20024;-53
2022/05/15 05:35:35;;;;;;;8.40;4.05;;;21.90;99.90;;;;;;5071884;28;20024;-56
2022/05/15 05:38:01;;;;;;;6.00;3.90;;;22.20;99.90;;;;;;5072767;28;20070;-55
2022/05/15 05:40:27;;;;;;;8.02;3.80;;;22.70;99.90;;;;;;5072172;28;20024;-56
2022/05/15 05:42:53;;;;;;;7.00;3.78;;;23.10;99.90;;;;;;5071787;28;20046;-54
2022/05/15 05:45:19;;;;;;;8.15;4.30;;;23.50;99.90;;;;;;5073089;28;20023;-55
2022/05/15 05:47:46;;;;;;;6.40;3.60;;;23.60;99.90;;;;;;5073402;28;20025;-55
2022/05/15 05:50:13;;;;;;;5.18;3.42;;;23.70;99.90;;;;;;5071644;28;20024;-57
2022/05/15 05:52:40;;;;;;;8.65;4.18;;;23.90;99.90;;;;;;5071687;28;20169;-55
2022/05/15 05:55:08;;;;;;;9.88;4.82;;;24.20;99.90;;;;;;5072573;28;20085;-56
2022/05/15 05:57:34;;;;;;;13.93;4.82;;;24.10;99.90;;;;;;5071574;28;20029;-58
2022/05/15 05:59:59;;;;;;;7.53;3.47;;;24.70;99.90;;;;;;5071831;28;20021;-54
2022/05/15 06:02:25;;;;;;;6.57;3.85;;;24.90;99.90;;;;;;5071508;28;20123;-57
2022/05/15 06:04:51;;;;;;;5.60;3.53;;;25.20;99.60;;;;;;5074145;28;20021;-58
2022/05/15 06:07:21;;;;;;;5.65;3.30;;;25.60;97.30;;;;;;5075562;28;20023;-56
2022/05/15 06:09:49;;;;;;;11.63;4.65;;;26.20;95.90;;;;;;5076416;28;20035;-56
2022/05/15 06:12:18;;;;;;;5.30;3.20;;;26.60;93.90;;;;;;5076157;28;20048;-58
2022/05/15 06:14:44;;;;;;;8.35;3.17;;;26.90;93.00;;;;;;5075315;28;20032;-57
2022/05/15 06:17:10;;;;;;;7.68;3.80;;;27.30;91.50;;;;;;5075254;28;20023;-60
2022/05/15 06:19:36;;;;;;;7.50;3.25;;;27.70;90.00;;;;;;5076262;28;20024;-58
2022/05/15 06:22:03;;;;;;;5.15;2.95;;;28.20;90.20;;;;;;5075171;28;20119;-58
2022/05/15 06:24:28;;;;;;;10.50;3.20;;;28.50;87.90;;;;;;5075193;28;20020;-60
2022/05/15 06:26:57;;;;;;;13.85;3.70;;;28.80;84.00;;;;;;5076417;28;20031;-60
2022/05/15 06:29:22;;;;;;;8.75;3.47;;;29.20;82.50;;;;;;5075395;28;20031;-60
2022/05/15 06:31:48;;;;;;;6.20;3.72;;;29.70;80.50;;;;;;5075016;28;20028;-58
2022/05/15 06:34:14;;;;;;;4.97;3.25;;;29.50;79.90;;;;;;5076281;28;20118;-58
2022/05/15 06:36:40;;;;;;;9.77;3.10;;;29.40;77.00;;;;;;5074865;28;20028;-61
2022/05/15 06:39:06;;;;;;;7.28;3.55;;;29.40;78.20;;;;;;5074731;28;20103;-59
2022/05/15 06:41:32;;;;;;;7.55;3.20;;;29.00;77.80;;;;;;5075290;28;20120;-58
2022/05/15 06:43:57;;;;;;;9.23;2.97;;;29.60;76.50;;;;;;5074779;28;20020;-59
2022/05/15 06:46:23;;;;;;;16.23;4.22;;;29.70;77.90;;;;;;5084084;28;20016;-60
2022/05/15 06:48:49;;;;;;;7.88;3.67;;;30.10;75.70;;;;;;5095207;28;20089;-61
2022/05/15 06:51:16;;;;;;;13.13;3.60;;;30.60;73.00;;;;;;5094790;28;20052;-60
2022/05/15 06:53:46;;;;;;;7.45;3.22;;;30.70;73.60;;;;;;5094839;28;20031;-59
2022/05/15 06:58:57;;;;;;;5.32;2.55;;;32.00;70.90;;;;;;5096377;28;20046;-56
2022/05/15 07:01:23;;;;;;;5.80;3.05;;;32.60;68.70;;;;;;5094926;28;20382;-59
2022/05/15 07:03:48;;;;;;;8.05;3.03;;;32.30;66.20;;;;;;5094861;28;20083;-59
2022/05/15 07:06:15;;;;;;;9.50;3.45;;;31.80;66.90;;;;;;5096402;28;20099;-60
2022/05/15 07:08:41;;;;;;;10.07;3.63;;;31.90;66.30;;;;;;5095856;28;20043;-59
2022/05/15 07:11:06;;;;;;;11.32;3.55;;;32.00;65.70;;;;;;5094849;28;20058;-60
2022/05/15 07:13:32;;;;;;;7.43;3.03;;;32.60;64.50;;;;;;5095812;28;20036;-61
2022/05/15 07:15:58;;;;;;;8.15;3.25;;;32.10;64.80;;;;;;5094822;28;20206;-64
2022/05/15 07:18:24;;;;;;;6.03;3.53;;;32.10;65.00;;;;;;5095757;28;20080;-64
2022/05/15 07:20:51;;;;;;;11.88;2.92;;;33.10;64.70;;;;;;5095386;28;20032;-65
2022/05/15 07:23:18;;;;;;;8.48;2.83;;;33.80;63.90;;;;;;5094348;28;20027;-65
2022/05/15 07:25:44;;;;;;;7.90;2.85;;;34.10;61.40;;;;;;5094241;28;20020;-64
2022/05/15 07:28:10;;;;;;;8.07;3.15;;;33.70;62.20;;;;;;5095484;28;20020;-65
2022/05/15 07:30:36;;;;;;;7.35;2.50;;;34.20;60.70;;;;;;5095623;28;20032;-66
2022/05/15 07:33:02;;;;;;;8.88;3.33;;;33.10;61.30;;;;;;5095454;28;20020;-66
2022/05/15 07:35:28;;;;;;;6.85;2.67;;;33.00;61.00;;;;;;5094061;28;20035;-66
2022/05/15 07:37:54;;;;;;;5.43;3.10;;;33.00;62.80;;;;;;5094083;28;20025;-66
2022/05/15 07:40:20;;;;;;;6.03;2.97;;;33.10;61.50;;;;;;5095377;28;20038;-66
2022/05/15 07:42:45;;;;;;;8.60;3.38;;;32.40;60.80;;;;;;5095221;28;20107;-66
2022/05/15 07:45:13;;;;;;;6.30;2.88;;;32.60;62.00;;;;;;5083720;28;20087;-66
2022/05/15 07:47:39;;;;;;;6.97;3.08;;;32.60;62.10;;;;;;5075718;28;20035;-66
2022/05/15 07:50:06;;;;;;;10.00;3.20;;;32.90;61.20;;;;;;5074843;28;20099;-66
2022/05/15 07:52:31;;;;;;;7.93;2.85;;;32.00;63.20;;;;;;5075349;28;20066;-66
2022/05/15 07:54:57;;;;;;;7.03;2.80;;;32.30;63.70;;;;;;5073527;28;20021;-65
2022/05/15 07:57:23;;;;;;;9.13;2.95;;;33.40;61.40;;;;;;5074016;28;20379;-66
2022/05/15 07:59:48;;;;;;;7.88;3.17;;;33.80;60.80;;;;;;5073546;28;20021;-66
2022/05/15 08:02:14;;;;;;;9.40;3.20;;;33.60;60.00;;;;;;5074831;28;20028;-66
2022/05/15 08:10:09;;;;;;;7.60;2.45;;;33.60;59.40;;;;;;5074574;28;20082;-66
2022/05/15 08:12:35;;;;;;;8.75;2.58;;;34.70;59.20;;;;;;5073376;28;20498;-66
2022/05/15 08:15:07;;;;;;;8.13;3.03;;;35.30;58.20;;;;;;5074580;28;20141;-66
2022/05/15 08:17:33;;;;;;;6.78;3.17;;;34.50;58.30;;;;;;5073027;28;20032;-66
2022/05/15 08:25:28;;;;;;;5.70;2.85;;;32.90;59.60;;;;;;5074457;28;20071;-66
2022/05/15 08:27:54;;;;;;;6.65;2.63;;;33.00;60.20;;;;;;5072012;28;20475;-66
2022/05/15 08:30:20;;;;;;;8.07;3.30;;;34.00;61.10;;;;;;5073865;28;20024;-66
2022/05/15 08:32:46;;;;;;;4.45;2.47;;;34.90;58.00;;;;;;5073095;28;20028;-66
2022/05/15 08:35:12;;;;;;;5.22;2.67;;;35.80;57.80;;;;;;5073177;28;20028;-66
2022/05/15 08:37:39;;;;;;;5.47;2.88;;;36.80;57.10;;;;;;5073058;28;20421;-65
2022/05/15 08:40:05;;;;;;;5.38;2.47;;;36.20;55.60;;;;;;5073863;28;20418;-66
2022/05/15 08:42:55;;;;;;;8.48;3.28;;;36.60;56.30;;;;;;5072875;28;20546;-63
2022/05/15 08:45:25;;;;;;;11.25;3.33;;;36.90;55.50;;;;;;5073271;28;20070;-64
2022/05/15 08:48:02;;;;;;;8.25;2.83;;;37.30;54.60;;;;;;5073993;28;20016;-63
2022/05/15 08:50:32;;;;;;;8.80;3.05;;;38.20;54.20;;;;;;5073581;28;20034;-62
2022/05/15 08:53:02;;;;;;;8.85;3.20;;;37.50;54.00;;;;;;5072976;28;20115;-61
2022/05/15 08:55:39;;;;;;;;;;;36.60;54.70;;;;;;5073583;28;20134;-61
2022/05/15 08:58:25;;;;;;;8.48;3.05;;;36.20;54.80;;;;;;5073648;28;19951;-61
2022/05/15 09:00:53;;;;;;;8.95;3.15;;;37.30;54.30;;;;;;5072997;28;20037;-65
2022/05/15 09:03:21;;;;;;;5.25;2.60;;;37.10;53.30;;;;;;5073507;28;20078;-64
2022/05/15 09:05:59;;;;;;;10.43;2.80;;;36.50;53.30;;;;;;5073403;28;20017;-66
2022/05/15 09:08:49;;;;;;;8.93;2.97;;;35.30;54.80;;;;;;5072185;28;20426;-65
2022/05/15 09:11:33;;;;;;;7.68;2.85;;;35.30;54.70;;;;;;5073772;28;20031;-65
2022/05/15 09:14:14;;;;;;;12.98;3.70;;;34.90;57.40;;;;;;5073211;28;20036;-65
2022/05/15 09:16:55;;;;;;;7.32;2.58;;;35.50;55.50;;;;;;5072114;28;20029;-67
2022/05/15 09:19:21;;;;;;;6.80;2.55;;;35.20;54.80;;;;;;5072852;28;20420;-65
2022/05/15 09:21:47;;;;;;;10.15;2.25;;;34.20;54.50;;;;;;5071917;28;20128;-65
2022/05/15 09:24:38;;;;;;;6.47;2.60;;;35.00;55.70;;;;;;5072143;28;20116;-65
2022/05/15 09:27:13;;;;;;;7.88;2.53;;;36.00;53.70;;;;;;5072337;28;20395;-65
2022/05/15 09:29:39;;;;;;;6.72;2.42;;;35.90;53.20;;;;;;5073257;28;20028;-65
2022/05/15 09:32:15;;;;;;;7.68;2.67;;;35.90;52.80;;;;;;5071910;28;20399;-65
2022/05/15 09:34:43;;;;;;;15.65;2.70;;;35.80;54.40;;;;;;5071923;28;20024;-65
2022/05/15 09:40:08;;;;;;;7.10;2.53;;;37.10;51.80;;;;;;5076452;28;20044;-65
2022/05/15 09:45:25;;;;;;;7.38;2.42;;;35.80;53.00;;;;;;5077709;28;20031;-65
2022/05/15 09:47:51;;;;;;;4.93;2.50;;;36.60;52.30;;;;;;5077149;28;20150;-65
2022/05/15 09:50:40;;;;;;;7.10;2.85;;;37.10;50.70;;;;;;5076971;28;20485;-65
2022/05/15 09:53:08;;;;;;;4.97;2.33;;;37.50;51.40;;;;;;5076538;28;20024;-65
2022/05/15 09:55:34;;;;;;;10.15;2.70;;;37.80;50.60;;;;;;5076082;28;20025;-66
2022/05/15 09:58:03;;;;;;;6.63;2.13;;;37.80;50.40;;;;;;5076262;28;20138;-65
2022/05/15 10:00:36;;;;;;;4.93;2.13;;;36.20;51.60;;;;;;5075349;28;20474;-65
2022/05/15 10:03:16;;;;;;;7.78;2.30;;;36.00;53.20;;;;;;5076810;28;20039;-65
2022/05/15 10:06:19;;;;;;;5.70;2.13;;;37.00;52.10;;;;;;5075608;28;20028;-65
2022/05/15 10:08:46;;;;;;;7.55;2.53;;;36.70;51.10;;;;;;5075848;28;20020;-65
2022/05/15 10:11:17;;;;;;;5.03;2.35;;;35.90;52.60;;;;;;5076596;28;20040;-65
2022/05/15 10:13:50;;;;;;;4.72;2.35;;;35.10;52.00;;;;;;5076934;28;20032;-65
2022/05/15 10:16:23;;;;;;;9.60;2.30;;;34.20;52.90;;;;;;5075461;28;20029;-65
2022/05/15 10:19:08;;;;;;;4.50;2.10;;;33.90;52.60;;;;;;5076470;28;20084;-65
2022/05/15 10:21:43;;;;;;;8.20;2.40;;;33.20;54.50;;;;;;5075736;28;20029;-65
2022/05/15 10:24:14;;;;;;;5.72;2.00;;;32.90;54.90;;;;;;5075617;28;20020;-64
2022/05/15 10:27:05;;;;;;;7.38;2.20;;;32.20;55.00;;;;;;5076005;28;20027;-65
2022/05/15 10:29:36;;;;;;;;;;;31.20;56.20;;;;;;5076739;28;20021;-65
2022/05/15 10:32:17;;;;;;;3.95;1.85;;;31.40;55.70;;;;;;5075928;28;19912;-65
2022/05/15 10:34:43;;;;;;;7.20;2.15;;;30.80;56.90;;;;;;5074973;28;20505;-65
2022/05/15 10:37:38;;;;;;;9.40;2.80;;;30.60;58.50;;;;;;5075024;28;20054;-65
2022/05/15 10:40:24;;;;;;;10.13;2.50;;;30.60;57.90;;;;;;5075650;28;20028;-65
2022/05/15 10:43:13;;;;;;;5.65;2.53;;;29.80;57.80;;;;;;5076418;28;20027;-65
2022/05/15 10:46:19;;;;;;;6.20;2.17;;;28.70;60.30;;;;;;5076099;28;20025;-65
2022/05/15 10:48:56;;;;;;;5.90;2.10;;;28.10;61.90;;;;;;5074792;28;20107;-65
2022/05/15 10:51:26;;;;;;;3.58;2.28;;;28.00;60.60;;;;;;5075254;28;20020;-65
2022/05/15 10:57:29;;;;;;;11.73;2.25;;;28.30;61.70;;;;;;5076389;28;20115;-65
2022/05/15 11:00:03;;;;;;;6.07;2.17;;;28.90;62.50;;;;;;5074428;28;20074;-65
2022/05/15 11:02:40;;;;;;;4.57;2.08;;;28.90;61.20;;;;;;5074799;28;20024;-65
2022/05/15 11:05:23;;;;;;;8.45;2.78;;;27.90;61.80;;;;;;5075967;28;20106;-65
2022/05/15 11:07:57;;;;;;;6.10;2.17;;;27.70;63.00;;;;;;5074624;28;20035;-65
2022/05/15 11:10:25;;;;;;;6.47;2.00;;;27.30;62.90;;;;;;5075569;28;20471;-64
2022/05/15 11:13:12;;;;;;;5.35;2.13;;;27.30;63.00;;;;;;5074299;28;20016;-64
2022/05/15 11:16:15;;;;;;;7.28;2.10;;;27.10;64.30;;;;;;5074234;28;20170;-64
2022/05/15 11:18:53;;;;;;;4.28;2.10;;;26.80;65.70;;;;;;5075392;28;20515;-64
2022/05/15 11:21:34;;;;;;;6.53;1.98;;;26.00;64.70;;;;;;5075605;28;20025;-64
2022/05/15 11:24:30;;;;;;;8.45;2.25;;;25.60;66.40;;;;;;5074513;28;20426;-64
2022/05/15 11:27:11;;;;;;;4.20;1.90;;;25.70;68.30;;;;;;5074211;28;20047;-64
2022/05/15 11:29:41;;;;;;;5.15;1.85;;;25.60;66.90;;;;;;5074017;28;20399;-64
2022/05/15 11:32:32;;;;;;;7.75;2.60;;;25.10;67.00;;;;;;5074222;28;20029;-64
2022/05/15 11:35:01;;;;;;;4.97;2.08;;;25.10;66.60;;;;;;5074796;28;20028;-64
2022/05/15 11:37:39;;;;;;;6.53;2.47;;;24.90;67.50;;;;;;5073910;28;20031;-64
2022/05/15 11:43:57;;;;;;;3.78;1.73;;;24.80;67.70;;;;;;5075007;28;20040;-64
2022/05/15 11:46:46;;;;;;;8.25;2.33;;;25.00;68.10;;;;;;5075023;28;20017;-64
2022/05/15 11:49:16;;;;;;;6.28;2.20;;;24.90;66.60;;;;;;5074778;28;20027;-64
2022/05/15 11:51:42;;;;;;;4.80;1.55;;;24.80;66.90;;;;;;5074831;28;20020;-64
2022/05/15 11:54:13;;;;;;;2.85;1.73;;;24.70;66.60;;;;;;5073535;28;20119;-64
2022/05/15 11:56:40;;;;;;;4.53;1.50;;;24.90;66.60;;;;;;5073447;28;20163;-65
2022/05/15 11:59:28;;;;;;;5.55;1.63;;;25.10;67.10;;;;;;5074789;28;20262;-64
2022/05/15 12:01:57;;;;;;;9.32;2.13;;;25.50;66.00;;;;;;5074788;28;20375;-64
2022/05/15 12:04:34;;;;;;;3.63;1.63;;;25.50;66.80;;;;;;5073844;28;20043;-65
2022/05/15 12:07:00;;;;;;;8.43;2.45;;;25.70;65.80;;;;;;5074583;28;20021;-64
2022/05/15 12:09:40;;;;;;;7.95;2.35;;;26.00;67.80;;;;;;5074375;28;20031;-64
2022/05/15 12:12:34;;;;;;;5.60;2.25;;;25.70;64.90;;;;;;5073691;28;20406;-64
2022/05/15 12:15:18;;;;;;;6.22;1.70;;;25.40;67.70;;;;;;5074148;28;20463;-65
2022/05/15 12:18:31;;;;;;;7.20;2.05;;;25.30;64.50;;;;;;5074380;28;20020;-64
2022/05/15 12:20:58;;;;;;;7.05;2.08;;;25.00;65.10;;;;;;5074130;28;20509;-65
2022/05/15 12:26:56;;;;;;;5.72;1.95;;;25.20;66.10;;;;;;5073492;28;20491;-64
2022/05/15 12:29:49;;;;;;;7.22;2.10;;;25.30;67.70;;;;;;5073984;28;20024;-64
2022/05/15 12:32:21;;;;;;;6.65;2.15;;;25.20;62.80;;;;;;5044785;28;20037;-64
2022/05/15 12:34:50;;;;;;;7.75;1.58;;;25.10;60.90;;;;;;5074313;28;20039;-64
2022/05/15 12:37:25;;;;;;;5.60;1.40;;;25.10;60.10;;;;;;5073518;28;20070;-64
2022/05/15 12:40:28;;;;;;;6.70;2.10;;;25.00;59.30;;;;;;5072493;28;20024;-64
2022/05/15 12:42:56;;;;;;;3.20;1.40;;;24.80;60.80;;;;;;5074124;28;20037;-64
2022/05/15 12:48:43;;;;;;;11.80;2.92;;;25.10;61.20;;;;;;5074080;28;20055;-64
2022/05/15 12:51:09;;;;;;;10.13;1.73;;;25.20;66.60;;;;;;5073556;28;20056;-64
2022/05/15 12:53:47;;;;;;;4.53;1.48;;;25.40;67.00;;;;;;5072283;28;20021;-65
2022/05/15 12:56:16;;;;;;;4.30;1.92;;;25.50;64.50;;;;;;5072945;28;20031;-65
2022/05/15 12:58:46;;;;;;;4.25;1.73;;;25.50;61.40;;;;;;5073991;28;20017;-64
2022/05/15 13:01:13;;;;;;;3.38;1.48;;;25.30;62.10;;;;;;5072238;28;20029;-64
2022/05/15 13:03:49;;;;;;;9.05;2.00;;;25.40;66.20;;;;;;5073432;28;20024;-64
2022/05/15 13:09:38;;;;;;;6.80;1.70;;;25.50;61.70;;;;;;5073687;28;20144;-64
2022/05/15 13:12:04;;;;;;;6.82;2.00;;;25.40;64.00;;;;;;5073567;28;20016;-64
2022/05/15 13:14:37;;;;;;;3.33;1.85;;;25.50;61.60;;;;;;5071511;28;20040;-64
2022/05/15 13:17:04;;;;;;;7.18;2.15;;;25.70;63.60;;;;;;5071993;28;20111;-64
2022/05/15 13:19:47;;;;;;;5.93;1.83;;;25.90;63.40;;;;;;5072020;28;20052;-64
2022/05/15 13:22:16;;;;;;;2.67;1.60;;;26.10;63.10;;;;;;5072510;28;20024;-64
2022/05/15 13:24:42;;;;;;;5.13;1.63;;;26.30;63.90;;;;;;5072785;28;20039;-64
2022/05/15 13:27:08;;;;;;;5.90;1.80;;;26.20;62.00;;;;;;5072037;28;20035;-64
2022/05/15 13:29:37;;;;;;;2.30;1.55;;;26.20;61.80;;;;;;5073510;28;20020;-64
2022/05/15 13:32:04;;;;;;;3.47;1.50;;;26.10;64.30;;;;;;5071966;28;20054;-64
2022/05/15 13:34:31;;;;;;;5.22;2.28;;;26.20;64.50;;;;;;5073393;28;20031;-64